createdAt,value
2023-02-22T00:00:59.823Z,15.95
2023-02-22T00:03:32.282Z,15.40
2023-02-22T00:06:04.153Z,16.60
2023-02-22T00:08:35.510Z,16.25
2023-02-22T00:11:05.180Z,15.73
2023-02-22T00:13:32.971Z,15.88
2023-02-22T00:16:02.079Z,16.17
2023-02-22T00:21:00.272Z,14.90
2023-02-22T00:23:30.298Z,15.27
2023-02-22T00:26:01.201Z,14.35
2023-02-22T00:28:30.629Z,14.73
2023-02-22T00:30:59.824Z,13.90
2023-02-22T00:33:27.766Z,12.70
2023-02-22T00:35:55.617Z,14.15
2023-02-22T00:38:23.537Z,13.73
2023-02-22T00:40:51.939Z,14.95
2023-02-22T00:43:21.257Z,14.55
2023-02-22T00:48:18.907Z,14.00
2023-02-22T00:50:48.444Z,14.00
2023-02-22T00:53:17.444Z,15.30
2023-02-22T00:55:45.265Z,14.52
2023-02-22T00:58:13.180Z,13.40
2023-02-22T01:00:43.932Z,12.50
2023-02-22T01:03:14.650Z,15.07
2023-02-22T01:05:42.955Z,12.82
2023-02-22T01:08:13.160Z,10.30
2023-02-22T01:10:41.209Z,11.80
2023-02-22T01:13:12.088Z,12.38
2023-02-22T01:15:44.841Z,12.65
2023-02-22T01:18:17.229Z,12.80
2023-02-22T01:20:47.932Z,10.40
2023-02-22T01:23:17.410Z,10.10
2023-02-22T01:25:45.500Z,10.35
2023-02-22T01:28:15.448Z,11.30
2023-02-22T01:30:44.829Z,12.68
2023-02-22T01:33:15.573Z,9.73
2023-02-22T01:35:46.208Z,10.35
2023-02-22T01:38:15.231Z,10.02
2023-02-22T01:40:47.818Z,11.57
2023-02-22T01:43:20.977Z,10.23
2023-02-22T01:45:58.979Z,10.32
2023-02-22T01:48:32.520Z,11.80
2023-02-22T01:51:02.783Z,14.18
2023-02-22T01:53:34.950Z,12.73
2023-02-22T01:56:03.339Z,13.02
2023-02-22T01:58:34.565Z,15.48
2023-02-22T02:01:04.322Z,13.85
2023-02-22T02:03:36.658Z,14.82
2023-02-22T02:06:07.335Z,13.93
2023-02-22T02:08:39.940Z,13.77
2023-02-22T02:11:10.084Z,15.52
2023-02-22T02:13:38.358Z,13.10
2023-02-22T02:25:07.462Z,10.93
2023-02-22T02:27:50.434Z,9.68
2023-02-22T02:30:58.238Z,8.07
2023-02-22T02:33:34.259Z,9.80
2023-02-22T02:36:05.403Z,7.72
2023-02-22T02:38:36.302Z,7.53
2023-02-22T02:41:11.764Z,9.30
2023-02-22T02:43:43.946Z,9.23
2023-02-22T02:46:19.125Z,7.43
2023-02-22T02:48:54.766Z,8.80
2023-02-22T02:51:26.235Z,7.28
2023-02-22T02:53:55.367Z,7.07
2023-02-22T02:56:24.599Z,7.18
2023-02-22T02:58:53.988Z,8.75
2023-02-22T03:01:46.275Z,7.65
2023-02-22T03:04:28.053Z,7.50
2023-02-22T03:07:15.711Z,7.38
2023-02-22T03:09:58.517Z,7.03
2023-02-22T03:12:38.088Z,7.20
2023-02-22T03:15:14.790Z,8.13
2023-02-22T03:17:50.926Z,7.93
2023-02-22T03:20:31.598Z,7.03
2023-02-22T03:23:08.164Z,6.57
2023-02-22T03:25:41.001Z,8.05
2023-02-22T03:28:12.954Z,7.60
2023-02-22T03:30:45.628Z,7.40
2023-02-22T03:33:20.413Z,6.97
2023-02-22T03:35:56.861Z,6.35
2023-02-22T03:38:28.058Z,7.32
2023-02-22T03:41:01.739Z,7.82
2023-02-22T03:43:35.763Z,6.85
2023-02-22T03:46:07.769Z,7.22
2023-02-22T03:48:41.108Z,6.53
2023-02-22T03:51:10.861Z,7.72
2023-02-22T03:53:38.950Z,7.50
2023-02-22T03:56:12.050Z,6.82
2023-02-22T03:58:44.024Z,8.27
2023-02-22T04:01:13.419Z,8.30
2023-02-22T04:03:42.160Z,7.47
2023-02-22T04:06:11.689Z,7.60
2023-02-22T04:08:40.031Z,6.95
2023-02-22T04:11:08.660Z,7.68
2023-02-22T04:13:36.591Z,7.80
2023-02-22T04:16:04.663Z,7.43
2023-02-22T04:18:32.627Z,7.53
2023-02-22T04:21:01.581Z,7.68
2023-02-22T04:23:38.537Z,7.22
2023-02-22T04:28:34.520Z,7.05
2023-02-22T04:31:16.005Z,6.78
2023-02-22T04:33:44.788Z,6.90
2023-02-22T04:36:16.742Z,7.00
2023-02-22T04:38:47.507Z,8.57
2023-02-22T04:43:43.867Z,7.90
2023-02-22T04:46:17.786Z,8.55
2023-02-22T04:48:46.144Z,8.50
2023-02-22T04:51:17.123Z,8.52
2023-02-22T04:53:57.416Z,9.18
2023-02-22T04:56:26.010Z,9.00
2023-02-22T04:58:53.870Z,8.48
2023-02-22T05:01:21.784Z,9.05
2023-02-22T05:03:49.771Z,8.60
2023-02-22T05:06:17.880Z,8.43
2023-02-22T05:08:45.761Z,7.53
2023-02-22T05:11:15.219Z,7.07
2023-02-22T05:13:43.752Z,6.97
2023-02-22T05:16:11.726Z,6.88
2023-02-22T05:18:39.703Z,6.28
2023-02-22T05:21:07.745Z,6.65
2023-02-22T05:23:35.787Z,7.03
2023-02-22T05:26:03.631Z,6.53
2023-02-22T05:28:32.986Z,6.25
2023-02-22T05:33:28.616Z,5.82
2023-02-22T05:35:56.475Z,6.85
2023-02-22T05:38:24.310Z,6.55
2023-02-22T05:40:52.607Z,7.30
2023-02-22T05:43:21.367Z,8.52
2023-02-22T05:45:50.557Z,8.98
2023-02-22T05:48:22.548Z,8.75
2023-02-22T05:50:50.982Z,9.40
2023-02-22T05:53:18.816Z,8.15
2023-02-22T05:55:46.719Z,8.25
2023-02-22T05:58:15.166Z,9.55
2023-02-22T06:00:43.041Z,8.13
2023-02-22T06:03:12.623Z,9.30
2023-02-22T06:05:42.023Z,10.35
2023-02-22T06:08:10.490Z,9.05
2023-02-22T06:10:38.616Z,8.77
2023-02-22T06:13:07.354Z,9.35
2023-02-22T06:15:35.203Z,9.50
2023-02-22T06:18:03.361Z,8.98
2023-02-22T06:20:33.381Z,8.50
2023-02-22T06:23:01.265Z,7.72
2023-02-22T06:25:31.355Z,8.65
2023-02-22T06:27:59.802Z,9.32
2023-02-22T06:30:29.027Z,8.93
2023-02-22T06:32:57.346Z,8.82
2023-02-22T06:35:25.265Z,8.82
2023-02-22T06:37:54.514Z,8.25
2023-02-22T06:40:22.452Z,8.23
2023-02-22T06:42:50.718Z,8.73
2023-02-22T06:45:19.246Z,8.07
2023-02-22T06:47:47.243Z,7.82
2023-02-22T06:50:22.368Z,7.97
2023-02-22T06:52:50.237Z,7.70
2023-02-22T06:55:21.463Z,8.63
2023-02-22T06:57:49.373Z,7.95
2023-02-22T07:00:18.947Z,6.00
2023-02-22T07:02:48.410Z,6.03
2023-02-22T07:05:17.644Z,6.00
2023-02-22T07:07:45.992Z,7.65
2023-02-22T07:10:22.368Z,7.28
2023-02-22T07:12:52.448Z,8.02
2023-02-22T07:15:22.490Z,6.82
2023-02-22T07:17:50.683Z,7.57
2023-02-22T07:20:20.500Z,6.78
2023-02-22T07:22:48.722Z,7.13
2023-02-22T07:25:16.609Z,7.10
2023-02-22T07:27:46.651Z,7.18
2023-02-22T07:30:19.130Z,6.97
2023-02-22T07:32:47.691Z,7.15
2023-02-22T07:35:17.584Z,6.55
2023-02-22T07:37:45.772Z,7.18
2023-02-22T07:40:13.667Z,7.32
2023-02-22T07:42:57.428Z,7.32
2023-02-22T07:45:26.688Z,7.15
2023-02-22T07:50:24.012Z,10.98
2023-02-22T07:52:53.257Z,10.23
2023-02-22T07:55:24.759Z,9.80
2023-02-22T07:57:55.838Z,8.80
2023-02-22T08:00:25.661Z,7.22
2023-02-22T08:02:53.707Z,6.05
2023-02-22T08:05:23.243Z,7.25
2023-02-22T08:07:51.086Z,6.72
2023-02-22T08:10:20.703Z,7.03
2023-02-22T08:12:49.417Z,7.05
2023-02-22T08:15:21.605Z,7.22
2023-02-22T08:17:49.489Z,7.00
2023-02-22T08:20:18.023Z,6.65
2023-02-22T08:22:45.893Z,6.93
2023-02-22T08:25:15.557Z,6.85
2023-02-22T08:27:43.804Z,7.00
2023-02-22T08:30:17.261Z,6.07
2023-02-22T08:32:48.095Z,6.70
2023-02-22T08:35:17.622Z,7.10
2023-02-22T08:37:45.889Z,6.75
2023-02-22T08:40:17.189Z,6.38
2023-02-22T08:42:45.408Z,6.68
2023-02-22T08:45:14.292Z,6.63
2023-02-22T08:47:42.640Z,7.05
2023-02-22T08:50:19.668Z,6.53
2023-02-22T08:52:47.719Z,6.97
2023-02-22T08:55:15.605Z,6.80
2023-02-22T08:57:43.430Z,6.57
2023-02-22T09:00:12.656Z,7.30
2023-02-22T09:05:09.313Z,6.80
2023-02-22T09:07:38.672Z,5.93
2023-02-22T09:12:34.632Z,6.55
2023-02-22T09:15:02.594Z,6.97
2023-02-22T09:17:30.400Z,6.35
2023-02-22T09:19:58.266Z,7.50
2023-02-22T09:22:26.131Z,7.43
2023-02-22T09:24:56.989Z,7.97
2023-02-22T09:27:28.242Z,8.38
2023-02-22T09:29:56.973Z,8.13
2023-02-22T09:32:27.848Z,7.32
2023-02-22T09:34:56.248Z,6.85
2023-02-22T09:37:24.118Z,5.97
2023-02-22T09:39:52.380Z,4.18
2023-02-22T09:42:28.546Z,4.75
2023-02-22T09:45:03.873Z,4.13
2023-02-22T09:47:41.205Z,4.10
2023-02-22T09:50:15.587Z,3.95
2023-02-22T09:52:54.727Z,4.30
2023-02-22T09:55:34.152Z,4.10
2023-02-22T09:58:08.487Z,4.35
2023-02-22T10:00:38.609Z,3.95
2023-02-22T10:03:21.239Z,3.80
2023-02-22T10:05:54.290Z,4.75
2023-02-22T10:08:22.370Z,4.43
2023-02-22T10:11:03.846Z,4.53
2023-02-22T10:13:44.690Z,4.13
2023-02-22T10:16:19.739Z,4.15
2023-02-22T10:19:08.530Z,4.38
2023-02-22T10:21:47.476Z,4.20
2023-02-22T10:26:54.124Z,4.07
2023-02-22T10:29:31.369Z,4.00
2023-02-22T10:32:02.936Z,4.43
2023-02-22T10:34:33.720Z,4.30
2023-02-22T10:37:14.868Z,4.78
2023-02-22T10:39:44.235Z,4.60
2023-02-22T10:42:12.273Z,4.65
2023-02-22T10:44:42.087Z,4.68
2023-02-22T10:47:11.844Z,4.80
2023-02-22T10:49:47.857Z,5.47
2023-02-22T10:52:23.306Z,4.78
2023-02-22T10:54:54.408Z,5.05
2023-02-22T10:57:27.691Z,4.88
2023-02-22T10:59:57.842Z,5.50
2023-02-22T11:02:31.214Z,5.00
2023-02-22T11:05:01.028Z,5.53
2023-02-22T11:07:31.035Z,5.50
2023-02-22T11:10:01.197Z,5.20
2023-02-22T11:12:32.102Z,5.28
2023-02-22T11:15:26.856Z,5.60
2023-02-22T11:17:57.429Z,5.47
2023-02-22T11:20:27.543Z,6.75
2023-02-22T11:22:58.275Z,5.40
2023-02-22T11:25:28.979Z,4.80
2023-02-22T11:27:59.893Z,5.57
2023-02-22T11:30:32.300Z,5.03
2023-02-22T11:33:06.146Z,5.68
2023-02-22T11:35:38.224Z,5.50
2023-02-22T11:38:22.029Z,4.93
2023-02-22T11:41:07.893Z,4.88
2023-02-22T11:43:36.240Z,5.53
2023-02-22T11:46:08.384Z,5.32
2023-02-22T11:48:39.928Z,5.35
2023-02-22T11:51:18.599Z,5.30
2023-02-22T11:54:13.054Z,5.50
2023-02-22T11:56:43.705Z,5.80
2023-02-22T11:59:25.846Z,5.63
2023-02-22T12:01:59.982Z,6.22
2023-02-22T12:04:51.608Z,5.63
2023-02-22T12:07:31.705Z,5.63
2023-02-22T12:10:10.050Z,5.15
2023-02-22T12:12:47.525Z,5.07
2023-02-22T12:15:29.644Z,6.07
2023-02-22T12:18:05.922Z,6.18
2023-02-22T12:20:40.709Z,5.50
2023-02-22T12:23:20.067Z,5.43
2023-02-22T12:25:58.584Z,6.15
2023-02-22T12:28:32.445Z,6.03
2023-02-22T12:31:09.050Z,5.63
2023-02-22T12:33:50.714Z,6.13
2023-02-22T12:36:23.876Z,6.25
2023-02-22T12:38:58.175Z,6.25
2023-02-22T12:41:31.340Z,6.50
2023-02-22T12:44:03.476Z,6.97
2023-02-22T12:46:35.369Z,6.63
2023-02-22T12:49:15.300Z,6.75
2023-02-22T12:51:49.731Z,6.60
2023-02-22T12:54:25.569Z,6.72
2023-02-22T12:56:58.165Z,6.90
2023-02-22T12:59:32.286Z,6.40
2023-02-22T13:02:04.442Z,6.72
2023-02-22T13:04:34.711Z,7.38
2023-02-22T13:07:15.952Z,6.70
2023-02-22T13:10:15.378Z,7.20
2023-02-22T13:12:52.474Z,6.85
2023-02-22T13:15:25.404Z,6.18
2023-02-22T13:18:01.969Z,6.50
2023-02-22T13:20:35.405Z,6.22
2023-02-22T13:23:08.540Z,6.32
2023-02-22T13:25:44.366Z,6.45
2023-02-22T13:28:23.221Z,6.60
2023-02-22T13:31:04.929Z,7.28
2023-02-22T13:33:45.000Z,6.45
2023-02-22T13:36:32.866Z,6.72
2023-02-22T13:39:30.801Z,6.70
2023-02-22T13:42:22.475Z,6.97
2023-02-22T13:45:24.929Z,7.53
2023-02-22T13:48:12.048Z,7.03
2023-02-22T13:51:01.278Z,6.82
2023-02-22T13:53:35.910Z,6.90
2023-02-22T13:56:04.023Z,6.60
2023-02-22T13:58:31.946Z,6.82
2023-02-22T14:01:00.698Z,7.45
2023-02-22T14:03:40.730Z,6.60
2023-02-22T14:06:32.835Z,6.70
2023-02-22T14:09:08.516Z,6.53
2023-02-22T14:11:45.945Z,6.53
2023-02-22T14:14:20.729Z,7.22
2023-02-22T14:17:22.009Z,7.43
2023-02-22T14:20:14.757Z,6.35
2023-02-22T14:22:43.105Z,6.97
2023-02-22T14:25:37.837Z,6.63
2023-02-22T14:28:07.409Z,6.60
2023-02-22T14:30:38.237Z,6.75
2023-02-22T14:33:46.753Z,6.38
2023-02-22T14:36:14.820Z,6.22
2023-02-22T14:38:46.084Z,6.60
2023-02-22T14:41:17.871Z,7.13
2023-02-22T14:43:47.276Z,7.05
2023-02-22T14:46:21.335Z,6.55
2023-02-22T14:48:52.853Z,7.20
2023-02-22T14:51:26.849Z,6.82
2023-02-22T14:54:00.949Z,6.32
2023-02-22T14:56:41.166Z,7.60
2023-02-22T14:59:17.975Z,6.88
2023-02-22T15:01:58.682Z,7.28
2023-02-22T15:04:33.893Z,7.70
2023-02-22T15:07:09.957Z,7.25
2023-02-22T15:09:37.843Z,6.55
2023-02-22T15:12:18.127Z,6.88
2023-02-22T15:14:47.705Z,6.30
2023-02-22T15:17:21.189Z,6.95
2023-02-22T15:19:50.076Z,7.78
2023-02-22T15:22:22.767Z,7.22
2023-02-22T15:24:59.777Z,7.45
2023-02-22T15:27:29.834Z,7.45
2023-02-22T15:30:04.584Z,6.55
2023-02-22T15:32:36.271Z,6.60
2023-02-22T15:35:14.583Z,7.57
2023-02-22T15:37:44.371Z,7.13
2023-02-22T15:40:15.991Z,7.75
2023-02-22T15:42:47.555Z,7.20
2023-02-22T15:45:20.898Z,7.93
2023-02-22T15:47:50.663Z,7.72
2023-02-22T15:50:23.795Z,7.47
2023-02-22T15:53:01.627Z,8.18
2023-02-22T15:55:33.528Z,8.18
2023-02-22T15:58:10.827Z,8.48
2023-02-22T16:00:40.608Z,8.85
2023-02-22T16:03:10.842Z,12.65
2023-02-22T16:05:42.107Z,14.73
2023-02-22T16:08:17.933Z,31.33
2023-02-22T16:10:53.834Z,10.10
2023-02-22T16:13:31.981Z,9.63
2023-02-22T16:16:02.838Z,9.68
2023-02-22T16:18:33.911Z,11.10
2023-02-22T16:21:04.372Z,11.77
2023-02-22T16:23:33.593Z,9.98
2023-02-22T16:26:20.675Z,13.25
2023-02-22T16:28:55.263Z,14.15
2023-02-22T16:31:25.294Z,14.25
2023-02-22T16:33:53.984Z,32.42
2023-02-22T16:36:25.631Z,21.02
2023-02-22T16:38:53.690Z,19.80
2023-02-22T16:41:21.568Z,20.17
2023-02-22T16:43:51.732Z,14.13
2023-02-22T16:46:20.530Z,16.90
2023-02-22T16:48:48.592Z,17.67
2023-02-22T16:51:20.461Z,14.80
2023-02-22T16:53:49.674Z,17.52
2023-02-22T16:56:20.417Z,15.20
2023-02-22T16:58:52.743Z,16.15
2023-02-22T17:01:23.363Z,13.73
2023-02-22T17:03:53.798Z,15.35
2023-02-22T17:06:22.134Z,13.75
2023-02-22T17:08:51.932Z,18.65
2023-02-22T17:11:20.457Z,19.05
2023-02-22T17:13:51.683Z,15.83
2023-02-22T17:16:21.231Z,18.17
2023-02-22T17:18:49.846Z,15.70
2023-02-22T17:21:17.735Z,16.87
2023-02-22T17:23:46.184Z,17.67
2023-02-22T17:26:16.243Z,15.55
2023-02-22T17:28:44.425Z,14.52
2023-02-22T17:31:21.681Z,15.02
2023-02-22T17:33:51.299Z,23.00
2023-02-22T17:36:25.410Z,40.10
2023-02-22T17:38:53.362Z,18.73
2023-02-22T17:41:21.542Z,14.52
2023-02-22T17:43:49.407Z,15.27
2023-02-22T17:46:19.636Z,14.38
2023-02-22T17:48:49.272Z,15.57
2023-02-22T17:51:17.350Z,15.93
2023-02-22T17:53:45.167Z,14.95
2023-02-22T17:56:18.471Z,16.13
2023-02-22T17:58:47.411Z,15.30
2023-02-22T18:01:25.199Z,16.08
2023-02-22T18:03:54.458Z,16.08
2023-02-22T18:06:25.502Z,15.75
2023-02-22T18:08:56.268Z,16.40
2023-02-22T18:11:26.365Z,16.63
2023-02-22T18:13:55.073Z,15.88
2023-02-22T18:16:23.952Z,16.52
2023-02-22T18:18:51.821Z,16.48
2023-02-22T18:21:21.319Z,16.42
2023-02-22T18:23:49.180Z,17.00
2023-02-22T18:26:18.322Z,16.85
2023-02-22T18:28:48.556Z,16.92
2023-02-22T18:31:19.074Z,17.80
2023-02-22T18:33:49.257Z,15.82
2023-02-22T18:36:22.648Z,18.13
2023-02-22T18:38:53.600Z,17.67
2023-02-22T18:41:25.645Z,17.35
2023-02-22T18:43:55.306Z,16.77
2023-02-22T18:46:24.650Z,17.10
2023-02-22T18:48:54.813Z,17.60
2023-02-22T18:51:23.753Z,17.50
2023-02-22T18:53:56.869Z,17.73
2023-02-22T18:56:29.611Z,17.38
2023-02-22T18:58:59.696Z,17.58
2023-02-22T19:01:28.749Z,17.52
2023-02-22T19:03:56.629Z,18.60
2023-02-22T19:06:24.610Z,19.27
2023-02-22T19:08:53.952Z,17.67
2023-02-22T19:13:52.625Z,16.88
2023-02-22T19:16:22.581Z,18.15
2023-02-22T19:18:52.415Z,18.95
2023-02-22T19:21:21.765Z,19.63
2023-02-22T19:23:49.934Z,22.55
2023-02-22T19:26:23.887Z,20.15
2023-02-22T19:28:53.049Z,19.70
2023-02-22T19:31:26.075Z,20.25
2023-02-22T19:33:54.101Z,19.48
2023-02-22T19:36:23.663Z,20.65
2023-02-22T19:38:52.077Z,21.27
2023-02-22T19:41:23.857Z,19.83
2023-02-22T19:43:53.842Z,23.45
2023-02-22T19:46:22.306Z,20.92
2023-02-22T19:48:50.990Z,20.70
2023-02-22T19:51:25.608Z,21.27
2023-02-22T19:53:54.607Z,20.60
2023-02-22T19:56:27.297Z,20.60
2023-02-22T19:58:57.070Z,21.40
2023-02-22T20:01:26.426Z,20.05
2023-02-22T20:06:26.473Z,20.75
2023-02-22T20:08:54.803Z,22.35
2023-02-22T20:11:24.913Z,21.30
2023-02-22T20:13:52.851Z,26.77
2023-02-22T20:16:20.724Z,22.83
2023-02-22T20:18:49.620Z,21.27
2023-02-22T20:21:21.811Z,22.15
2023-02-22T20:23:49.669Z,23.20
2023-02-22T20:26:19.894Z,22.25
2023-02-22T20:28:49.538Z,22.10
2023-02-22T20:31:18.165Z,21.50
2023-02-22T20:33:48.009Z,22.55
2023-02-22T20:36:17.727Z,21.60
2023-02-22T20:38:46.974Z,21.33
2023-02-22T20:41:17.559Z,23.02
2023-02-22T20:43:45.563Z,23.60
2023-02-22T20:46:15.183Z,24.13
2023-02-22T20:48:43.081Z,22.17
2023-02-22T20:51:12.450Z,23.88
2023-02-22T20:56:13.346Z,24.80
2023-02-22T20:58:41.514Z,26.02
2023-02-22T21:01:12.144Z,25.50
2023-02-22T21:03:42.188Z,30.73
2023-02-22T21:06:11.776Z,31.45
2023-02-22T21:08:40.309Z,23.40
2023-02-22T21:11:11.696Z,25.05
2023-02-22T21:13:39.730Z,32.30
2023-02-22T21:16:10.261Z,27.17
2023-02-22T21:18:38.445Z,25.75
2023-02-22T21:21:10.342Z,31.90
2023-02-22T21:23:38.785Z,48.97
2023-02-22T21:26:07.305Z,23.83
2023-02-22T21:28:50.410Z,23.58
2023-02-22T21:31:21.001Z,21.98
2023-02-22T21:33:51.170Z,22.88
2023-02-22T21:36:21.289Z,21.20
2023-02-22T21:38:53.129Z,21.30
2023-02-22T21:41:23.596Z,22.27
2023-02-22T21:43:52.756Z,25.35
2023-02-22T21:46:21.061Z,23.13
2023-02-22T21:48:49.357Z,23.40
2023-02-22T21:51:19.777Z,22.40
2023-02-22T21:53:52.103Z,22.70
2023-02-22T21:56:23.740Z,24.38
2023-02-22T21:58:59.155Z,22.33
2023-02-22T22:01:28.515Z,25.08
2023-02-22T22:03:59.592Z,24.27
2023-02-22T22:06:29.053Z,22.73
2023-02-22T22:11:30.572Z,25.85
2023-02-22T22:13:59.659Z,26.17
2023-02-22T22:16:29.768Z,22.65
2023-02-22T22:18:58.663Z,24.10
2023-02-22T22:21:27.209Z,25.95
2023-02-22T22:23:56.304Z,24.02
2023-02-22T22:26:27.356Z,26.83
2023-02-22T22:28:57.429Z,27.65
2023-02-22T22:31:26.784Z,29.90
2023-02-22T22:36:23.510Z,22.20
2023-02-22T22:38:52.765Z,24.65
2023-02-22T22:41:21.909Z,22.42
2023-02-22T22:43:52.741Z,22.85
2023-02-22T22:46:21.517Z,25.02
2023-02-22T22:48:49.450Z,26.63
2023-02-22T22:51:20.324Z,29.90
2023-02-22T22:53:50.352Z,27.17
2023-02-22T22:56:20.406Z,28.48
2023-02-22T22:58:51.962Z,25.88
2023-02-22T23:01:26.785Z,32.47
2023-02-22T23:03:56.222Z,31.10
2023-02-22T23:08:59.935Z,33.78
2023-02-22T23:11:29.189Z,34.30
2023-02-22T23:14:00.197Z,28.25
2023-02-22T23:16:28.669Z,25.60
2023-02-22T23:18:56.519Z,25.17
2023-02-22T23:21:24.625Z,24.52
2023-02-22T23:23:56.134Z,24.02
2023-02-22T23:26:26.637Z,23.50
2023-02-22T23:28:57.019Z,23.95
2023-02-22T23:31:29.382Z,22.77
2023-02-22T23:33:58.937Z,24.05
2023-02-22T23:36:27.436Z,24.90
2023-02-22T23:38:55.879Z,23.20
2023-02-22T23:41:25.157Z,24.43
2023-02-22T23:43:53.886Z,24.23
2023-02-22T23:46:21.892Z,24.90
2023-02-22T23:48:54.519Z,25.90
2023-02-22T23:51:25.732Z,24.42
2023-02-22T23:53:55.704Z,24.23
2023-02-22T23:56:27.545Z,25.02
2023-02-22T23:58:57.360Z,25.65
